createdAt,value
2019-05-20T00:00:55.109Z,99553.70
2019-05-20T00:03:27.852Z,99555.77
2019-05-20T00:05:58.726Z,99553.15
2019-05-20T00:08:29.476Z,99554.28
2019-05-20T00:11:00.378Z,99551.25
2019-05-20T00:13:31.073Z,99555.73
2019-05-20T00:16:01.599Z,99544.01
2019-05-20T00:18:32.449Z,99552.34
2019-05-20T00:21:04.498Z,99554.09
2019-05-20T00:23:35.142Z,99550.41
2019-05-20T00:26:08.097Z,99543.94
2019-05-20T00:28:40.254Z,99550.36
2019-05-20T00:31:10.840Z,99554.99
2019-05-20T00:33:41.588Z,99551.23
2019-05-20T00:36:12.203Z,99556.50
2019-05-20T00:38:43.032Z,99560.30
2019-05-20T00:41:13.608Z,99561.97
2019-05-20T00:43:44.286Z,99560.30
2019-05-20T00:46:14.883Z,99565.98
2019-05-20T00:48:46.594Z,99563.23
2019-05-20T00:51:20.196Z,99565.61
2019-05-20T00:53:50.935Z,99562.95
2019-05-20T00:56:21.547Z,99569.28
2019-05-20T00:58:52.059Z,99566.25
2019-05-20T01:01:22.663Z,99573.84
2019-05-20T01:03:54.880Z,99574.09
2019-05-20T01:06:25.700Z,99581.06
2019-05-20T01:08:56.278Z,99575.51
2019-05-20T01:11:27.306Z,99580.84
2019-05-20T01:13:58.327Z,99574.03
2019-05-20T01:16:29.048Z,99573.95
2019-05-20T01:18:59.797Z,99579.39
2019-05-20T01:21:32.505Z,99571.73
2019-05-20T01:24:03.269Z,99575.78
2019-05-20T01:26:37.406Z,99575.70
2019-05-20T01:29:08.061Z,99576.33
2019-05-20T01:31:39.004Z,99579.94
2019-05-20T01:34:10.103Z,99580.28
2019-05-20T01:36:40.768Z,99584.27
2019-05-20T01:39:11.596Z,99580.74
2019-05-20T01:41:44.115Z,99585.34
2019-05-20T01:44:18.771Z,99588.18
2019-05-20T01:46:49.784Z,99585.64
2019-05-20T01:49:22.314Z,99583.66
2019-05-20T01:51:56.167Z,99577.09
2019-05-20T01:54:29.910Z,99584.13
2019-05-20T01:57:03.167Z,99586.22
2019-05-20T01:59:33.876Z,99589.42
2019-05-20T02:02:04.926Z,99592.02
2019-05-20T02:04:36.407Z,99591.91
2019-05-20T02:07:07.434Z,99592.82
2019-05-20T02:09:38.454Z,99599.06
2019-05-20T02:12:09.330Z,99603.09
2019-05-20T02:14:50.697Z,99600.91
2019-05-20T02:17:23.236Z,99599.05
2019-05-20T02:19:55.497Z,99604.58
2019-05-20T02:22:26.335Z,99606.42
2019-05-20T02:25:00.421Z,99606.06
2019-05-20T02:27:31.005Z,99609.48
2019-05-20T02:30:01.720Z,99610.10
2019-05-20T02:32:34.611Z,99604.60
2019-05-20T02:35:09.542Z,99618.61
2019-05-20T02:37:40.301Z,99613.59
2019-05-20T02:40:11.973Z,99614.13
2019-05-20T02:42:42.771Z,99622.28
2019-05-20T02:45:18.244Z,99620.66
2019-05-20T02:47:50.447Z,99617.58
2019-05-20T02:50:22.561Z,99620.52
2019-05-20T02:52:53.386Z,99623.45
2019-05-20T02:55:26.908Z,99627.72
2019-05-20T02:57:57.750Z,99622.14
2019-05-20T03:00:28.398Z,99619.63
2019-05-20T03:02:59.278Z,99624.98
2019-05-20T03:05:29.926Z,99614.06
2019-05-20T03:08:02.214Z,99614.55
2019-05-20T03:10:35.835Z,99617.40
2019-05-20T03:13:06.604Z,99619.73
2019-05-20T03:15:39.496Z,99616.16
2019-05-20T03:18:10.342Z,99613.84
2019-05-20T03:20:41.057Z,99617.41
2019-05-20T03:23:11.670Z,99622.08
2019-05-20T03:25:42.219Z,99619.58
2019-05-20T03:28:12.839Z,99622.44
2019-05-20T03:30:44.337Z,99627.39
2019-05-20T03:33:15.086Z,99623.97
2019-05-20T03:35:47.214Z,99626.13
2019-05-20T03:38:19.025Z,99632.95
2019-05-20T03:40:51.925Z,99623.41
2019-05-20T03:43:22.589Z,99623.41
2019-05-20T03:45:53.318Z,99631.29
2019-05-20T03:48:25.508Z,99634.06
2019-05-20T03:50:59.246Z,99627.23
2019-05-20T03:53:32.865Z,99628.08
2019-05-20T03:56:03.572Z,99628.89
2019-05-20T03:58:35.677Z,99632.71
2019-05-20T04:01:06.250Z,99630.67
2019-05-20T04:03:38.395Z,99637.85
2019-05-20T04:06:09.027Z,99634.38
2019-05-20T04:08:39.859Z,99644.70
2019-05-20T04:11:10.445Z,99645.56
2019-05-20T04:13:41.347Z,99645.00
2019-05-20T04:16:13.607Z,99649.13
2019-05-20T04:18:46.845Z,99648.00
2019-05-20T04:21:18.112Z,99649.04
2019-05-20T04:23:53.592Z,99646.39
2019-05-20T04:26:26.525Z,99647.47
2019-05-20T04:28:58.885Z,99651.27
2019-05-20T04:31:33.498Z,99656.19
2019-05-20T04:34:04.282Z,99667.20
2019-05-20T04:36:36.438Z,99661.07
2019-05-20T04:39:07.549Z,99667.44
2019-05-20T04:41:38.167Z,99676.23
2019-05-20T04:44:10.673Z,99675.19
2019-05-20T04:46:48.215Z,99671.36
2019-05-20T04:49:24.930Z,99672.14
2019-05-20T04:51:55.717Z,99681.30
2019-05-20T04:54:34.203Z,99675.45
2019-05-20T04:57:06.538Z,99681.86
2019-05-20T04:59:40.284Z,99685.85
2019-05-20T05:02:10.906Z,99692.61
2019-05-20T05:04:43.075Z,99701.92
2019-05-20T05:07:13.832Z,99699.44
2019-05-20T05:09:44.635Z,99693.67
2019-05-20T05:12:16.999Z,99694.28
2019-05-20T05:14:48.126Z,99699.58
2019-05-20T05:17:18.907Z,99707.12
2019-05-20T05:19:49.664Z,99708.97
2019-05-20T05:22:20.472Z,99713.66
2019-05-20T05:24:51.089Z,99712.52
2019-05-20T05:27:23.080Z,99711.36
2019-05-20T05:29:53.687Z,99715.66
2019-05-20T05:32:43.913Z,99715.16
2019-05-20T05:35:17.565Z,99720.15
2019-05-20T05:37:48.658Z,99722.29
2019-05-20T05:40:21.846Z,99726.42
2019-05-20T05:42:53.073Z,99724.08
2019-05-20T05:45:32.011Z,99729.41
2019-05-20T05:48:03.462Z,99732.55
2019-05-20T05:50:36.399Z,99729.63
2019-05-20T05:53:06.988Z,99735.73
2019-05-20T05:55:39.257Z,99743.99
2019-05-20T05:58:09.892Z,99748.20
2019-05-20T06:00:40.525Z,99746.88
2019-05-20T06:03:13.331Z,99750.53
2019-05-20T06:05:43.626Z,99743.28
2019-05-20T06:08:15.390Z,99751.14
2019-05-20T06:10:47.019Z,99754.14
2019-05-20T06:13:19.195Z,99771.20
2019-05-20T06:15:49.799Z,99766.53
2019-05-20T06:18:20.404Z,99755.06
2019-05-20T06:20:51.155Z,99757.59
2019-05-20T06:23:21.847Z,99762.36
2019-05-20T06:25:52.986Z,99762.80
2019-05-20T06:28:23.608Z,99760.09
2019-05-20T06:30:54.201Z,99759.83
2019-05-20T06:33:25.455Z,99761.50
2019-05-20T06:35:56.784Z,99764.39
2019-05-20T06:38:35.464Z,99765.23
2019-05-20T06:41:09.372Z,99762.66
2019-05-20T06:43:41.703Z,99771.16
2019-05-20T06:46:12.325Z,99763.08
2019-05-20T06:48:42.930Z,99766.67
2019-05-20T06:51:14.929Z,99779.67
2019-05-20T06:53:47.212Z,99776.67
2019-05-20T06:56:20.243Z,99780.95
2019-05-20T06:58:52.326Z,99783.47
2019-05-20T07:01:23.097Z,99784.06
2019-05-20T07:03:53.919Z,99784.83
2019-05-20T07:06:25.002Z,99788.97
2019-05-20T07:08:55.677Z,99784.01
2019-05-20T07:11:26.263Z,99790.45
2019-05-20T07:13:56.961Z,99794.81
2019-05-20T07:16:27.675Z,99791.35
2019-05-20T07:18:58.333Z,99795.04
2019-05-20T07:21:28.998Z,99795.04
2019-05-20T07:23:59.578Z,99790.68
2019-05-20T07:26:30.163Z,99793.36
2019-05-20T07:29:00.880Z,99798.80
2019-05-20T07:31:31.495Z,99802.58
2019-05-20T07:34:02.205Z,99799.14
2019-05-20T07:36:32.920Z,99800.81
2019-05-20T07:39:04.190Z,99805.08
2019-05-20T07:41:34.864Z,99811.08
2019-05-20T07:44:05.754Z,99787.87
2019-05-20T07:46:36.507Z,99787.87
2019-05-20T07:49:07.732Z,99796.26
2019-05-20T07:51:40.286Z,99790.13
2019-05-20T07:54:11.598Z,99793.20
2019-05-20T07:56:45.391Z,99786.09
2019-05-20T07:59:18.123Z,99784.28
2019-05-20T08:01:48.865Z,99783.73
2019-05-20T08:04:19.501Z,99773.27
2019-05-20T08:06:50.170Z,99779.28
2019-05-20T08:09:20.913Z,99779.26
2019-05-20T08:11:51.800Z,99771.03
2019-05-20T08:14:25.189Z,99776.19
2019-05-20T08:16:55.894Z,99778.77
2019-05-20T08:19:26.486Z,99774.94
2019-05-20T08:22:00.217Z,99774.47
2019-05-20T08:24:30.959Z,99767.91
2019-05-20T08:27:01.578Z,99779.03
2019-05-20T08:29:32.203Z,99768.30
2019-05-20T08:32:02.832Z,99763.23
2019-05-20T08:34:33.854Z,99757.41
2019-05-20T08:37:07.751Z,99764.27
2019-05-20T08:39:42.776Z,99759.05
2019-05-20T08:42:15.984Z,99758.27
2019-05-20T08:44:49.301Z,99764.10
2019-05-20T08:47:20.016Z,99755.48
2019-05-20T08:49:50.863Z,99760.77
2019-05-20T08:52:24.095Z,99759.44
2019-05-20T08:55:00.230Z,99758.39
2019-05-20T08:57:30.882Z,99751.58
2019-05-20T09:00:01.632Z,99743.45
2019-05-20T09:02:32.513Z,99743.19
2019-05-20T09:05:03.114Z,99733.68
2019-05-20T09:07:37.823Z,99744.35
2019-05-20T09:10:09.312Z,99742.42
2019-05-20T09:12:39.951Z,99735.80
2019-05-20T09:15:11.233Z,99743.61
2019-05-20T09:17:41.860Z,99737.92
2019-05-20T09:20:13.273Z,99745.27
2019-05-20T09:22:43.904Z,99740.64
2019-05-20T09:25:18.896Z,99745.41
2019-05-20T09:27:49.591Z,99739.21
2019-05-20T09:30:20.282Z,99733.86
2019-05-20T09:32:51.117Z,99743.09
2019-05-20T09:35:21.860Z,99746.90
2019-05-20T09:37:52.534Z,99747.14
2019-05-20T09:40:44.423Z,99750.20
2019-05-20T09:43:15.129Z,99751.77
2019-05-20T09:45:46.233Z,99740.58
2019-05-20T09:48:19.513Z,99750.19
2019-05-20T09:50:50.351Z,99751.83
2019-05-20T09:53:21.112Z,99748.90
2019-05-20T09:55:53.094Z,99748.31
2019-05-20T09:58:24.103Z,99748.84
2019-05-20T10:00:54.741Z,99748.00
2019-05-20T10:03:25.452Z,99734.39
2019-05-20T10:05:59.105Z,99726.77
2019-05-20T10:08:39.028Z,99737.16
2019-05-20T10:11:03.689Z,99731.38
2019-05-20T10:13:34.562Z,99737.09
2019-05-20T10:16:05.185Z,99727.23
2019-05-20T10:18:39.462Z,99723.48
2019-05-20T10:21:11.940Z,99725.95
2019-05-20T10:23:42.659Z,99722.07
2019-05-20T10:26:17.533Z,99720.98
2019-05-20T10:28:48.155Z,99722.88
2019-05-20T10:31:20.299Z,99726.76
2019-05-20T10:33:51.533Z,99728.42
2019-05-20T10:36:22.224Z,99730.31
2019-05-20T10:38:59.051Z,99723.74
2019-05-20T10:41:29.217Z,99732.77
2019-05-20T10:43:59.651Z,99723.45
2019-05-20T10:46:31.818Z,99723.48
2019-05-20T10:49:02.552Z,99718.26
2019-05-20T10:51:33.331Z,99723.75
2019-05-20T10:54:04.015Z,99725.42
2019-05-20T10:56:34.718Z,99721.63
2019-05-20T10:59:05.367Z,99719.18
2019-05-20T11:01:36.044Z,99721.37
2019-05-20T11:04:08.251Z,99725.14
2019-05-20T11:06:39.146Z,99727.11
2019-05-20T11:09:14.090Z,99721.85
2019-05-20T11:11:46.613Z,99732.85
2019-05-20T11:14:17.331Z,99729.56
2019-05-20T11:16:47.935Z,99716.43
2019-05-20T11:19:18.618Z,99716.70
2019-05-20T11:21:51.703Z,99709.61
2019-05-20T11:24:22.453Z,99710.95
2019-05-20T11:26:54.850Z,99705.77
2019-05-20T11:29:25.511Z,99706.32
2019-05-20T11:31:56.298Z,99700.84
2019-05-20T11:34:26.997Z,99703.82
2019-05-20T11:37:01.683Z,99700.27
2019-05-20T11:39:34.237Z,99698.66
2019-05-20T11:42:06.831Z,99710.13
2019-05-20T11:44:48.460Z,99709.59
2019-05-20T11:47:21.963Z,99703.59
2019-05-20T11:49:52.591Z,99700.03
2019-05-20T11:52:23.207Z,99697.02
2019-05-20T11:54:55.535Z,99690.70
2019-05-20T11:57:26.321Z,99698.61
2019-05-20T11:59:56.991Z,99702.20
2019-05-20T12:02:27.948Z,99698.64
2019-05-20T12:04:58.633Z,99696.73
2019-05-20T12:07:31.221Z,99692.91
2019-05-20T12:10:01.846Z,99689.61
2019-05-20T12:12:32.707Z,99690.16
2019-05-20T12:15:05.504Z,99683.05
2019-05-20T12:17:36.897Z,99684.97
2019-05-20T12:20:11.826Z,99685.20
2019-05-20T12:22:41.592Z,99679.73
2019-05-20T12:25:15.620Z,99684.65
2019-05-20T12:27:46.203Z,99690.13
2019-05-20T12:30:19.708Z,99687.69
2019-05-20T12:32:50.331Z,99689.07
2019-05-20T12:35:20.981Z,99679.23
2019-05-20T12:37:51.583Z,99681.41
2019-05-20T12:40:22.900Z,99681.16
2019-05-20T12:42:53.527Z,99676.47
2019-05-20T12:45:25.756Z,99680.06
2019-05-20T12:47:58.088Z,99684.42
2019-05-20T12:50:28.778Z,99679.47
2019-05-20T12:52:59.352Z,99684.12
2019-05-20T12:55:29.991Z,99680.32
2019-05-20T12:58:00.792Z,99688.53
2019-05-20T13:00:31.398Z,99688.25
2019-05-20T13:03:02.284Z,99684.96
2019-05-20T13:05:32.903Z,99686.88
2019-05-20T13:08:06.828Z,99686.59
2019-05-20T13:10:37.572Z,99686.02
2019-05-20T13:13:09.769Z,99689.07
2019-05-20T13:15:40.371Z,99680.33
2019-05-20T13:18:11.270Z,99689.06
2019-05-20T13:20:42.000Z,99682.51
2019-05-20T13:23:14.942Z,99682.52
2019-05-20T13:25:46.734Z,99675.13
2019-05-20T13:28:20.514Z,99679.77
2019-05-20T13:30:51.274Z,99673.22
2019-05-20T13:33:22.359Z,99665.28
2019-05-20T13:35:54.661Z,99669.64
2019-05-20T13:38:25.242Z,99669.94
2019-05-20T13:40:55.885Z,99664.47
2019-05-20T13:43:26.608Z,99670.74
2019-05-20T13:45:59.214Z,99660.08
2019-05-20T13:48:29.866Z,99661.16
2019-05-20T13:51:01.089Z,99655.99
2019-05-20T13:53:32.719Z,99662.25
2019-05-20T13:56:05.605Z,99655.12
2019-05-20T13:58:35.716Z,99657.58
2019-05-20T14:01:09.711Z,99656.23
2019-05-20T14:03:50.723Z,99656.23
2019-05-20T14:06:21.618Z,99656.52
2019-05-20T14:08:52.416Z,99652.38
2019-05-20T14:11:34.194Z,99655.14
2019-05-20T14:13:57.055Z,99663.32
2019-05-20T14:16:30.330Z,99657.58
2019-05-20T14:19:01.018Z,99656.21
2019-05-20T14:21:33.270Z,99660.62
2019-05-20T14:24:05.234Z,99649.39
2019-05-20T14:26:36.265Z,99648.84
2019-05-20T14:29:06.977Z,99643.91
2019-05-20T14:31:38.501Z,99645.30
2019-05-20T14:34:09.490Z,99647.75
2019-05-20T14:36:40.598Z,99644.20
2019-05-20T14:39:11.312Z,99644.45
2019-05-20T14:41:43.448Z,99651.58
2019-05-20T14:44:18.459Z,99649.93
2019-05-20T14:46:49.784Z,99643.11
2019-05-20T14:49:20.595Z,99645.29
2019-05-20T14:51:55.923Z,99645.29
2019-05-20T14:54:27.229Z,99649.09
2019-05-20T14:57:02.370Z,99639.83
2019-05-20T14:59:40.507Z,99644.74
2019-05-20T15:02:11.589Z,99635.95
2019-05-20T15:04:42.558Z,99626.14
2019-05-20T15:07:13.201Z,99630.77
2019-05-20T15:09:45.392Z,99637.87
2019-05-20T15:12:19.767Z,99635.68
2019-05-20T15:14:54.239Z,99628.56
2019-05-20T15:17:26.598Z,99627.76
2019-05-20T15:19:57.501Z,99626.66
2019-05-20T15:22:29.204Z,99625.84
2019-05-20T15:25:01.822Z,99619.30
2019-05-20T15:27:34.768Z,99621.18
2019-05-20T15:30:10.212Z,99615.45
2019-05-20T15:32:40.969Z,99617.61
2019-05-20T15:35:13.280Z,99614.08
2019-05-20T15:37:43.885Z,99614.58
2019-05-20T15:40:18.025Z,99609.09
2019-05-20T15:42:48.596Z,99607.70
2019-05-20T15:45:19.434Z,99604.16
2019-05-20T15:47:50.678Z,99600.56
2019-05-20T15:50:22.061Z,99604.69
2019-05-20T15:52:52.721Z,99605.23
2019-05-20T15:55:27.546Z,99600.25
2019-05-20T15:57:58.444Z,99600.25
2019-05-20T16:00:29.308Z,99592.84
2019-05-20T16:02:59.948Z,99592.84
2019-05-20T16:05:32.882Z,99601.03
2019-05-20T16:08:04.148Z,99600.17
2019-05-20T16:10:35.246Z,99600.17
2019-05-20T16:13:05.869Z,99590.75
2019-05-20T16:15:37.358Z,99581.47
2019-05-20T16:18:08.386Z,99587.72
2019-05-20T16:20:45.170Z,99580.29
2019-05-20T16:23:16.006Z,99581.34
2019-05-20T16:25:50.951Z,99589.44
2019-05-20T16:28:24.451Z,99593.75
2019-05-20T16:30:55.110Z,99583.41
2019-05-20T16:33:26.075Z,99597.52
2019-05-20T16:35:56.777Z,99590.92
2019-05-20T16:38:31.149Z,99594.38
2019-05-20T16:41:01.783Z,99589.72
2019-05-20T16:43:32.380Z,99601.34
2019-05-20T16:46:03.106Z,99596.61
2019-05-20T16:48:37.279Z,99597.92
2019-05-20T16:51:07.927Z,99593.25
2019-05-20T16:53:40.122Z,99597.31
2019-05-20T16:56:12.281Z,99590.23
2019-05-20T16:58:43.231Z,99592.06
2019-05-20T17:01:15.767Z,99589.40
2019-05-20T17:03:46.719Z,99579.48
2019-05-20T17:06:19.102Z,99582.98
2019-05-20T17:08:56.210Z,99582.37
2019-05-20T17:11:30.028Z,99583.94
2019-05-20T17:14:00.861Z,99585.80
2019-05-20T17:16:35.035Z,99584.06
2019-05-20T17:19:06.697Z,99581.27
2019-05-20T17:21:39.769Z,99580.59
2019-05-20T17:24:12.639Z,99585.30
2019-05-20T17:26:43.590Z,99587.08
2019-05-20T17:29:16.494Z,99585.09
2019-05-20T17:31:47.513Z,99591.06
2019-05-20T17:34:18.507Z,99586.20
2019-05-20T17:36:49.290Z,99590.22
2019-05-20T17:39:19.974Z,99585.91
2019-05-20T17:41:50.570Z,99594.84
2019-05-20T17:44:21.498Z,99595.40
2019-05-20T17:46:52.237Z,99600.75
2019-05-20T17:49:22.871Z,99595.00
2019-05-20T17:51:53.473Z,99601.91
2019-05-20T17:54:25.231Z,99603.39
2019-05-20T17:56:57.541Z,99612.37
2019-05-20T17:59:31.612Z,99607.88
2019-05-20T18:02:02.342Z,99614.42
2019-05-20T18:04:33.591Z,99616.83
2019-05-20T18:07:05.198Z,99618.65
2019-05-20T18:09:39.460Z,99612.05
2019-05-20T18:12:10.845Z,99613.22
2019-05-20T18:14:42.543Z,99614.73
2019-05-20T18:17:16.598Z,99614.71
2019-05-20T18:19:48.952Z,99620.01
2019-05-20T18:22:19.987Z,99622.27
2019-05-20T18:24:52.199Z,99623.22
2019-05-20T18:27:23.700Z,99623.08
2019-05-20T18:29:56.290Z,99626.31
2019-05-20T18:32:27.426Z,99624.54
2019-05-20T18:34:58.372Z,99629.27
2019-05-20T18:37:29.304Z,99630.55
2019-05-20T18:40:12.783Z,99627.63
2019-05-20T18:42:33.029Z,99628.14
2019-05-20T18:45:06.414Z,99630.53
2019-05-20T18:47:37.248Z,99627.63
2019-05-20T18:50:09.385Z,99634.31
2019-05-20T18:52:40.043Z,99631.84
2019-05-20T18:55:11.433Z,99639.20
2019-05-20T18:57:42.233Z,99630.33
2019-05-20T19:00:14.221Z,99639.98
2019-05-20T19:02:45.249Z,99633.83
2019-05-20T19:05:17.373Z,99632.91
2019-05-20T19:07:49.165Z,99643.63
2019-05-20T19:10:20.419Z,99644.53
2019-05-20T19:12:51.721Z,99646.86
2019-05-20T19:15:23.000Z,99658.48
2019-05-20T19:17:55.688Z,99654.70
2019-05-20T19:20:26.862Z,99653.58
2019-05-20T19:22:57.977Z,99657.69
2019-05-20T19:25:37.309Z,99665.42
2019-05-20T19:28:01.480Z,99666.89
2019-05-20T19:30:32.530Z,99676.28
2019-05-20T19:33:04.314Z,99675.58
2019-05-20T19:35:35.020Z,99678.19
2019-05-20T19:38:06.101Z,99681.95
2019-05-20T19:40:36.907Z,99678.12
2019-05-20T19:43:08.034Z,99681.69
2019-05-20T19:45:39.280Z,99674.34
2019-05-20T19:48:10.434Z,99675.80
2019-05-20T19:50:41.320Z,99678.74
2019-05-20T19:53:12.079Z,99676.50
2019-05-20T19:55:44.169Z,99685.41
2019-05-20T19:58:15.216Z,99685.41
2019-05-20T20:00:46.261Z,99690.59
2019-05-20T20:03:17.394Z,99686.17
2019-05-20T20:05:48.537Z,99680.69
2019-05-20T20:08:19.499Z,99682.51
2019-05-20T20:10:50.513Z,99686.38
2019-05-20T20:13:23.808Z,99678.25
2019-05-20T20:15:54.945Z,99682.62
2019-05-20T20:18:25.984Z,99685.75
2019-05-20T20:20:57.145Z,99680.87
2019-05-20T20:23:29.606Z,99683.40
2019-05-20T20:26:02.365Z,99693.45
2019-05-20T20:28:33.151Z,99694.27
2019-05-20T20:31:04.163Z,99693.06
2019-05-20T20:33:35.249Z,99700.23
2019-05-20T20:36:06.459Z,99695.48
2019-05-20T20:38:39.361Z,99702.89
2019-05-20T20:41:10.260Z,99697.94
2019-05-20T20:43:41.440Z,99699.20
2019-05-20T20:46:12.355Z,99694.53
2019-05-20T20:48:43.400Z,99691.83
2019-05-20T20:51:14.447Z,99691.42
2019-05-20T20:53:45.372Z,99692.06
2019-05-20T20:56:24.594Z,99681.84
2019-05-20T20:58:52.475Z,99686.64
2019-05-20T21:01:23.772Z,99686.88
2019-05-20T21:03:54.755Z,99699.97
2019-05-20T21:06:29.649Z,99689.23
2019-05-20T21:09:00.326Z,99689.11
2019-05-20T21:11:31.578Z,99691.53
2019-05-20T21:14:04.686Z,99692.80
2019-05-20T21:16:37.645Z,99694.70
2019-05-20T21:19:08.798Z,99694.70
2019-05-20T21:21:39.730Z,99696.61
2019-05-20T21:24:12.920Z,99696.61
2019-05-20T21:26:44.574Z,99692.89
2019-05-20T21:29:15.719Z,99689.74
2019-05-20T21:31:46.898Z,99694.38
2019-05-20T21:34:31.350Z,99689.19
2019-05-20T21:37:02.555Z,99701.69
2019-05-20T21:39:33.496Z,99704.30
2019-05-20T21:42:04.544Z,99706.50
2019-05-20T21:44:37.148Z,99704.70
2019-05-20T21:47:08.151Z,99705.95
2019-05-20T21:49:39.194Z,99697.39
2019-05-20T21:52:10.800Z,99694.11
2019-05-20T21:54:42.611Z,99692.89
2019-05-20T21:57:18.711Z,99690.73
2019-05-20T21:59:51.224Z,99694.11
2019-05-20T22:02:26.689Z,99689.37
2019-05-20T22:05:03.050Z,99689.16
2019-05-20T22:07:35.682Z,99685.91
2019-05-20T22:10:08.519Z,99692.14
2019-05-20T22:12:42.428Z,99697.03
2019-05-20T22:15:15.201Z,99693.71
2019-05-20T22:17:47.479Z,99696.41
2019-05-20T22:20:21.998Z,99701.66
2019-05-20T22:23:06.760Z,99696.77
2019-05-20T22:25:38.725Z,99691.06
2019-05-20T22:28:12.744Z,99696.64
2019-05-20T22:30:42.939Z,99697.98
2019-05-20T22:33:17.480Z,99700.68
2019-05-20T22:35:49.139Z,99700.36
2019-05-20T22:38:21.817Z,99701.83
2019-05-20T22:40:55.047Z,99694.00
2019-05-20T22:43:25.746Z,99701.59
2019-05-20T22:45:57.287Z,99698.20
2019-05-20T22:48:29.662Z,99698.58
2019-05-20T22:51:00.398Z,99698.91
2019-05-20T22:53:31.613Z,99701.01
2019-05-20T22:56:05.777Z,99704.62
2019-05-20T22:58:38.626Z,99699.99
2019-05-20T23:01:09.444Z,99702.70
2019-05-20T23:03:54.355Z,99701.34
2019-05-20T23:06:13.194Z,99702.59
2019-05-20T23:08:44.058Z,99698.32
2019-05-20T23:11:15.282Z,99696.39
2019-05-20T23:13:50.513Z,99694.05
2019-05-20T23:16:23.242Z,99699.70
2019-05-20T23:18:54.358Z,99707.46
2019-05-20T23:21:25.696Z,99704.63
2019-05-20T23:23:56.829Z,99696.23
2019-05-20T23:26:27.764Z,99693.31
2019-05-20T23:28:58.951Z,99693.17
2019-05-20T23:31:31.284Z,99682.52
2019-05-20T23:34:12.919Z,99688.82
2019-05-20T23:36:40.657Z,99692.44
2019-05-20T23:39:11.843Z,99691.22
2019-05-20T23:41:51.049Z,99689.36
2019-05-20T23:44:22.070Z,99685.86
2019-05-20T23:46:56.189Z,99685.97
2019-05-20T23:49:27.008Z,99683.05
2019-05-20T23:51:58.200Z,99685.10
2019-05-20T23:54:30.858Z,99680.22
2019-05-20T23:57:01.760Z,99682.43
2019-05-20T23:59:32.911Z,99678.87
